Flight Track Log - Related Links

Times and Time Zones

All times are in EDT time to prevent confusion due to time zone crossing. See the EJA941 flight status page for this flight to view local times or setup timezone preferences in your user account.

Time Position Orientation Groundspeed Altitude Reporting Facility
EDT Latitude Longitude Course Direction KTS MPH feet Rate Location/Type
Fri 04:55:06 PM 43.5925 -72.5606 262° West 391 450 7,900  Level Boston Center
Fri 04:56:15 PM 43.5839 -72.6522 263° West 321 369 8,200 2,047 Climbing Boston Center
Fri 04:57:00 PM 43.4732 -73.2854 262° West  Level FlightAware Approximate
Fri 04:57:15 PM 43.5711 -72.7869 263° West 302 348 12,300  Level Boston Center
Fri 04:58:16 PM 43.5581 -72.9100 262° West 309 356 15,200 2,479 Climbing Boston Center
Fri 04:59:16 PM 43.5408 -73.0531 261° West 336 387 17,300 1,672 Climbing Boston Center
Fri 05:00:18 PM 43.5278 -73.1617 261° West 348 400 18,600 1,563 Climbing Boston Center
Fri 05:01:15 PM 43.5122 -73.3047 262° West 355 409 20,400 1,795 Climbing Boston Center
Fri 05:02:15 PM 43.4986 -73.4389 262° West 355 409 22,100 1,736 Climbing Boston Center
Fri 05:03:16 PM 43.4825 -73.5761 261° West 355 409 23,900 1,736 Climbing Boston Center
Fri 05:04:16 PM 43.4500 -73.7100 252° West 360 414 25,600 1,686 Climbing Boston Center
Fri 05:05:17 PM 43.3881 -73.8428 237° Southwest 365 420 27,300 1,574 Climbing Boston Center
Fri 05:06:18 PM 43.3342 -73.9700 240° Southwest 378 435 28,800 1,525 Climbing Boston Center
Fri 05:07:15 PM 43.3053 -74.1119 254° West 378 435 30,300 1,525 Climbing Boston Center
Fri 05:08:16 PM 43.2944 -74.2600 264° West 384 442 31,800 1,488 Climbing Boston Center
Fri 05:09:16 PM 43.2878 -74.4139 267° West 395 455 33,300 1,353 Climbing Boston Center
Fri 05:10:29 PM 43.2767 -74.5647 264° West 400 460 34,800 1,353 Climbing Boston Center
Fri 05:11:29 PM 43.2419 -74.7431 255° West 406 467 36,300 1,240 Climbing Boston Center
Fri 05:12:30 PM 43.1975 -74.8867 247° West 406 467 37,300 1,017 Climbing Boston Center
Fri 05:13:27 PM 43.1503 -75.0356 247° West 417 480 38,300 1,017 Climbing Boston Center
Fri 05:14:28 PM 43.1053 -75.1844 248° West 422 486 39,300 893 Climbing Boston Center
Fri 05:15:28 PM 43.0933 -75.3261 263° West 422 486 40,100 793 Climbing Boston Center
Fri 05:16:29 PM 43.1069 -75.4492 279° West 416 479 40,900 992 Climbing Boston Center
Fri 05:17:29 PM 43.1206 -75.6375 276° West 415 478 42,100 1,017 Climbing Boston Center
Fri 05:18:27 PM 43.1331 -75.7833 277° West 409 471 42,900 323 Climbing Boston Center
Fri 05:20:16 PM 43.1333 -76.0500 270° West 400 460 43,000 36 Climbing Toronto Center
Fri 05:21:16 PM 43.1500 -76.2000 279° West 410 472 43,000  Level Toronto Center
Fri 05:22:16 PM 43.1333 -76.3667 262° West 420 483 43,000  Level Toronto Center
Fri 05:23:16 PM 43.1167 -76.5333 262° West 420 483 43,000  Level Toronto Center
Fri 05:24:16 PM 43.1167 -76.6833 270° West 430 495 43,000  Level Toronto Center
Fri 05:25:31 PM 43.0997 -76.9008 264° West 428 493 43,000  Level Cleveland Center
Fri 05:26:32 PM 43.0861 -77.0667 264° West 433 498 43,000  Level Cleveland Center
Fri 05:27:31 PM 43.0703 -77.2322 263° West 439 505 43,000  Level Cleveland Center
Fri 05:28:32 PM 43.0667 -77.4003 268° West 444 511 43,000  Level Cleveland Center
Fri 05:29:31 PM 43.0775 -77.5703 275° West 444 511 43,000  Level Cleveland Center
Fri 05:30:31 PM 43.0858 -77.7406 274° West 444 511 43,000  Level Cleveland Center
Fri 05:31:32 PM 43.0942 -77.9050 274° West 444 511 43,000  Level Cleveland Center
Fri 05:32:32 PM 43.1044 -78.0922 274° West 444 511 43,000  Level Cleveland Center
Fri 05:33:32 PM 43.1122 -78.2625 274° West 444 511 43,000  Level Cleveland Center
Fri 05:34:31 PM 43.1217 -78.4300 274° West 444 511 43,000  Level Cleveland Center
Fri 05:35:31 PM 43.1289 -78.6033 273° West 444 511 43,000  Level Cleveland Center
Fri 05:36:31 PM 43.1381 -78.7739 274° West 450 518 43,000  Level Cleveland Center
Fri 05:37:17 PM 43.1333 -78.8833 267° West 450 518 43,000  Level Toronto Center
Fri 05:38:16 PM 43.1333 -79.0667 270° West 450 518 43,000  Level Toronto Center
Fri 05:39:16 PM 43.1500 -79.2167 279° West 460 529 43,000  Level Toronto Center
Fri 05:40:17 PM 43.1500 -79.4000 270° West 460 529 43,000  Level Toronto Center
Fri 05:41:17 PM 43.1500 -79.5667 270° West 460 529 43,000  Level Toronto Center
Fri 05:42:16 PM 43.1667 -79.7500 277° West 460 529 43,000  Level Toronto Center
Fri 05:43:16 PM 43.1667 -79.9333 270° West 460 529 43,000  Level Toronto Center
Fri 05:44:17 PM 43.1833 -80.0833 279° West 460 529 43,000  Level Toronto Center
Fri 05:45:16 PM 43.1833 -80.2667 270° West 460 529 43,000  Level Toronto Center
Fri 05:46:16 PM 43.1833 -80.4500 270° West 460 529 43,000  Level Toronto Center
Fri 05:47:16 PM 43.2000 -80.6333 277° West 470 541 43,000  Level Toronto Center
Fri 05:48:17 PM 43.1833 -80.8167 263° West 470 541 43,000  Level Toronto Center
Fri 05:49:16 PM 43.1833 -80.9833 270° West 470 541 43,000  Level Toronto Center
Fri 05:50:16 PM 43.2000 -81.1667 277° West 470 541 43,000  Level Toronto Center
Fri 05:51:16 PM 43.2000 -81.3500 270° West 470 541 43,000  Level Toronto Center
Fri 05:52:16 PM 43.2167 -81.5333 277° West 470 541 43,000  Level Toronto Center
Fri 05:53:16 PM 43.2167 -81.7167 270° West 470 541 43,000  Level Toronto Center
Fri 05:54:17 PM 43.2167 -81.8667 270° West 470 541 43,000  Level Toronto Center
Fri 05:55:16 PM 43.2167 -82.0500 270° West 470 541 43,000  Level Toronto Center
Fri 05:56:16 PM 43.2167 -82.2333 270° West 470 541 43,000  Level Toronto Center
Fri 05:57:16 PM 43.2333 -82.4167 277° West 470 541 43,000  Level Toronto Center
Fri 05:58:16 PM 43.2167 -82.6000 263° West 470 541 43,000  Level Toronto Center
Fri 05:59:44 PM 43.2153 -82.8564 270° West 474 545 43,000  Level Cleveland Center
Fri 06:00:44 PM 43.2053 -83.0328 266° West 474 545 43,000  Level Cleveland Center
Fri 06:01:43 PM 43.1972 -83.2147 267° West 479 551 43,000  Level Cleveland Center
Fri 06:02:43 PM 43.1886 -83.3964 266° West 479 551 43,000  Level Cleveland Center
Fri 06:03:44 PM 43.1781 -83.5753 265° West 479 551 43,000  Level Cleveland Center
Fri 06:04:43 PM 43.1689 -83.7544 266° West 479 551 43,000  Level Cleveland Center
Fri 06:05:44 PM 43.1556 -83.9386 264° West 479 551 43,000  Level Cleveland Center
Fri 06:07:16 PM 43.1167 -84.2333 260° West 480 552 43,000  Level Toronto Center
Fri 06:07:53 PM 43.1344 -84.3314 284° West 479 551 43,000  Level Chicago Center
Fri 06:08:55 PM 43.1225 -84.5119 265° West 479 551 43,000  Level Chicago Center
Fri 06:09:58 PM 43.1106 -84.6936 265° West 480 552 43,000  Level Chicago Center
Fri 06:11:00 PM 43.0989 -84.8747 265° West 480 552 43,000  Level Chicago Center
Fri 06:12:02 PM 43.0842 -85.0928 265° West 481 554 43,000  Level Chicago Center
Fri 06:13:04 PM 43.0708 -85.2739 264° West 480 552 43,000  Level Chicago Center
Fri 06:14:06 PM 43.0586 -85.4553 265° West 480 552 43,000  Level Chicago Center
Fri 06:15:08 PM 43.0453 -85.6372 264° West 482 555 43,000  Level Chicago Center
Fri 06:16:10 PM 43.0308 -85.8175 264° West 479 551 43,000  Level Chicago Center
Fri 06:17:12 PM 43.0181 -86.0250 265° West 481 554 43,000  Level Chicago Center
Fri 06:18:14 PM 43.0031 -86.2061 264° West 505 581 43,000  Level Chicago Center
Fri 06:19:16 PM 42.9875 -86.3908 263° West 497 572 43,000  Level Chicago Center
Fri 06:20:18 PM 42.9694 -86.6075 264° West 483 556 43,000  Level Chicago Center
Fri 06:21:21 PM 42.9542 -86.7889 263° West 484 557 43,000  Level Chicago Center
Fri 06:22:23 PM 42.9394 -86.9731 264° West 489 563 43,000  Level Chicago Center
Fri 06:23:25 PM 42.9231 -87.1578 263° West 493 567 43,000  Level Chicago Center
Fri 06:24:27 PM 42.9067 -87.3392 263° West 488 562 43,000  Level Chicago Center
Fri 06:25:29 PM 42.8881 -87.5522 263° West 485 558 43,000  Level Chicago Center
Fri 06:26:31 PM 42.8697 -87.7392 262° West 490 564 43,000  Level Chicago Center
Fri 06:27:33 PM 42.8522 -87.9269 263° West 498 573 43,000  Level Chicago Center
Fri 06:28:35 PM 42.8350 -88.1128 263° West 491 565 43,000  Level Chicago Center
Fri 06:29:37 PM 42.8167 -88.3000 262° West 493 567 43,000  Level Chicago Center
Fri 06:30:40 PM 42.7981 -88.4856 262° West 493 567 43,000  Level Chicago Center
Fri 06:31:41 PM 42.7769 -88.7019 263° West 491 565 43,000  Level Chicago Center
Fri 06:32:43 PM 42.7581 -88.8883 262° West 493 567 43,000  Level Chicago Center
Fri 06:33:46 PM 42.7386 -89.0722 262° West 492 566 43,000  Level Chicago Center
Fri 06:34:48 PM 42.7117 -89.2564 259° West 493 567 43,000  Level Chicago Center
Fri 06:35:50 PM 42.6811 -89.4386 257° West 493 567 43,000  Level Chicago Center
Fri 06:36:52 PM 42.6506 -89.6244 257° West 498 573 43,000  Level Chicago Center
Fri 06:37:54 PM 42.6131 -89.8383 257° West 499 574 43,000  Level Chicago Center
Fri 06:38:56 PM 42.5831 -90.0269 258° West 500 575 43,000  Level Chicago Center
Fri 06:39:58 PM 42.5514 -90.2106 257° West 503 579 43,000  Level Chicago Center
Fri 06:41:00 PM 42.5194 -90.3919 257° West 501 577 43,000  Level Chicago Center
Fri 06:42:02 PM 42.4878 -90.5753 257° West 505 581 43,000  Level Chicago Center
Fri 06:43:04 PM 42.4561 -90.7567 257° West 500 575 43,000  Level Chicago Center
Fri 06:44:06 PM 42.4167 -90.9775 256° West 505 581 43,000  Level Chicago Center
Fri 06:45:08 PM 42.3825 -91.1600 256° West 503 579 43,000  Level Chicago Center
Fri 06:46:10 PM 42.3489 -91.3447 256° West 504 580 43,000  Level Chicago Center
Fri 06:47:13 PM 42.3136 -91.5311 256° West 511 588 43,000  Level Chicago Center
Fri 06:48:15 PM 42.2797 -91.7158 256° West 507 583 43,000  Level Chicago Center
Fri 06:49:17 PM 42.2453 -91.8994 256° West 507 583 43,000  Level Chicago Center
Fri 06:50:19 PM 42.2025 -92.1208 255° West 510 587 43,000  Level Chicago Center
Fri 06:51:21 PM 42.1672 -92.3036 255° West 509 586 43,000  Level Chicago Center
Fri 06:52:23 PM 42.1319 -92.4861 255° West 508 585 43,000  Level Chicago Center
Fri 06:53:25 PM 42.0958 -92.6664 255° West 505 581 43,000  Level Chicago Center
Fri 06:54:27 PM 42.0603 -92.8486 255° West 507 583 43,000  Level Chicago Center
Fri 06:55:29 PM 42.0164 -93.0653 255° West 506 582 43,000  Level Chicago Center
Fri 06:56:31 PM 41.9803 -93.2456 255° West 505 581 43,000  Level Chicago Center
Fri 06:57:34 PM 41.9442 -93.4250 255° West 504 580 43,000  Level Chicago Center
Fri 06:58:36 PM 41.9064 -93.6039 254° West 503 579 43,000  Level Chicago Center
Fri 06:59:38 PM 41.8700 -93.7847 255° West 506 582 43,000  Level Chicago Center
Fri 07:00:40 PM 41.8242 -94.0003 254° West 508 585 43,000  Level Chicago Center
Fri 07:01:42 PM 41.7856 -94.1778 254° West 503 579 43,000  Level Chicago Center
Fri 07:02:44 PM 41.7478 -94.3572 254° West 504 580 43,000  Level Chicago Center
Fri 07:04:08 PM 41.6953 -94.6114 255° West 507 583 43,000  Level Minneapolis Center
Fri 07:05:10 PM 41.6547 -94.7939 253° West 512 589 43,000  Level Minneapolis Center
Fri 07:06:12 PM 41.6161 -94.9744 254° West 507 583 43,000  Level Minneapolis Center
Fri 07:07:14 PM 41.5672 -95.1919 253° West 509 586 43,000  Level Minneapolis Center
Fri 07:08:16 PM 41.5261 -95.3750 253° West 514 592 43,000  Level Minneapolis Center
Fri 07:09:18 PM 41.4839 -95.5569 253° West 514 592 43,000  Level Minneapolis Center
Fri 07:10:21 PM 41.4394 -95.7550 253° West 516 594 43,000  Level Minneapolis Center
Fri 07:11:23 PM 41.3983 -95.9367 253° West 514 592 43,000  Level Minneapolis Center
Fri 07:12:25 PM 41.3564 -96.1181 253° West 514 592 43,000  Level Minneapolis Center
Fri 07:13:27 PM 41.3144 -96.2986 253° West 511 588 43,000  Level Minneapolis Center
Fri 07:14:29 PM 41.2719 -96.4814 253° West 510 587 43,000  Level Minneapolis Center
Fri 07:15:31 PM 41.2294 -96.6603 253° West 510 587 43,000  Level Minneapolis Center
Fri 07:16:33 PM 41.1764 -96.8742 252° West 508 585 43,000  Level Minneapolis Center
Fri 07:17:35 PM 41.1333 -97.0550 253° West 512 589 43,000  Level Minneapolis Center
Fri 07:18:37 PM 41.0892 -97.2344 252° West 513 590 43,000  Level Minneapolis Center
Fri 07:19:39 PM 41.0456 -97.4125 252° West 513 590 43,000  Level Minneapolis Center
Fri 07:20:41 PM 41.0014 -97.5925 252° West 513 590 43,000  Level Minneapolis Center
Fri 07:21:43 PM 40.9575 -97.7722 252° West 513 590 43,000  Level Minneapolis Center
Fri 07:22:46 PM 40.9036 -97.9892 252° West 514 592 43,000  Level Minneapolis Center
Fri 07:23:48 PM 40.8575 -98.1686 251° West 514 592 43,000  Level Minneapolis Center
Fri 07:24:50 PM 40.8106 -98.3511 251° West 517 595 43,000  Level Minneapolis Center
Fri 07:25:52 PM 40.7656 -98.5281 251° West 520 598 43,000  Level Minneapolis Center
Fri 07:26:54 PM 40.7169 -98.7167 251° West 520 598 43,000  Level Minneapolis Center
Fri 07:27:56 PM 40.6697 -98.8978 251° West 518 596 43,000  Level Minneapolis Center
Fri 07:28:58 PM 40.6233 -99.0767 251° West 514 592 43,000  Level Minneapolis Center
Fri 07:30:00 PM 40.5767 -99.2539 251° West 512 589 43,000  Level Minneapolis Center
Fri 07:31:01 PM 40.5303 -99.4289 251° West 509 586 43,000  Level Denver Center
Fri 07:32:03 PM 40.4747 -99.6389 251° West 506 582 43,000  Level Denver Center
Fri 07:33:05 PM 40.4278 -99.8119 250° West 503 579 43,000  Level Denver Center
Fri 07:34:07 PM 40.3792 -99.9900 250° West 503 579 43,000  Level Denver Center
Fri 07:35:09 PM 40.3331 -100.1581 250° West 508 585 43,000  Level Denver Center
Fri 07:36:11 PM 40.2794 -100.3525 250° West 507 583 43,000  Level Denver Center
Fri 07:37:13 PM 40.2325 -100.5192 250° West 509 586 43,000  Level Denver Center
Fri 07:38:15 PM 40.1781 -100.7142 250° West 509 586 43,000  Level Denver Center
Fri 07:39:17 PM 40.1322 -100.8814 250° West 509 586 43,000  Level Denver Center
Fri 07:40:19 PM 40.0853 -101.0481 250° West 510 587 43,000  Level Denver Center
Fri 07:41:21 PM 40.0294 -101.2406 249° West 507 583 43,000  Level Denver Center
Fri 07:42:23 PM 39.9814 -101.4078 249° West 511 588 43,000  Level Denver Center
Fri 07:43:25 PM 39.9264 -101.6025 250° West 512 589 43,000  Level Denver Center
Fri 07:44:28 PM 39.8778 -101.7669 249° West 510 587 43,000  Level Denver Center
Fri 07:45:30 PM 39.8214 -101.9553 249° West 502 578 43,000  Level Denver Center
Fri 07:46:32 PM 39.7739 -102.1192 249° West 505 581 43,000  Level Denver Center
Fri 07:47:34 PM 39.7175 -102.3094 249° West 505 581 43,000  Level Denver Center
Fri 07:48:36 PM 39.6700 -102.4706 249° West 500 575 43,000  Level Denver Center
Fri 07:49:38 PM 39.6131 -102.6581 249° West 503 579 43,000  Level Denver Center
Fri 07:50:40 PM 39.5628 -102.8242 249° West 496 571 43,000  Level Denver Center
Fri 07:51:42 PM 39.5111 -102.9908 248° West 499 574 43,000  Level Denver Center
Fri 07:52:44 PM 39.4594 -103.1594 248° West 504 580 43,000  Level Denver Center
Fri 07:53:46 PM 39.4081 -103.3272 248° West 502 578 43,000  Level Denver Center
Fri 07:54:48 PM 39.3561 -103.4942 248° West 501 577 43,000  Level Denver Center
Fri 07:55:50 PM 39.2944 -103.6931 248° West 498 573 43,000  Level Denver Center
Fri 07:56:52 PM 39.2417 -103.8586 248° West 497 572 43,000  Level Denver Center
Fri 07:57:54 PM 39.1897 -104.0228 248° West 494 568 43,000  Level Denver Center
Fri 07:58:56 PM 39.1369 -104.1894 248° West 499 574 43,000  Level Denver Center
Fri 07:59:58 PM 39.0844 -104.3533 248° West 494 568 43,000  Level Denver Center
Fri 08:01:00 PM 39.0311 -104.5186 247° West 498 573 43,000  Level Denver Center
Fri 08:02:03 PM 38.9769 -104.6844 247° West 501 577 43,000  Level Denver Center
Fri 08:03:05 PM 38.9144 -104.8786 248° West 487 560 43,000  Level Denver Center
Fri 08:04:07 PM 38.8600 -105.0425 247° West 494 568 43,000  Level Denver Center
Fri 08:05:09 PM 38.8075 -105.2058 248° West 495 570 43,000  Level Denver Center
Fri 08:06:11 PM 38.7528 -105.3664 246° West 494 568 43,000  Level Denver Center
Fri 08:07:13 PM 38.6986 -105.5286 247° West 493 567 43,000  Level Denver Center
Fri 08:08:15 PM 38.6447 -105.6900 247° West 494 568 43,000  Level Denver Center
Fri 08:09:17 PM 38.5836 -105.8722 247° West 493 567 43,000  Level Denver Center
Fri 08:10:19 PM 38.5300 -106.0267 246° West 497 572 43,000  Level Denver Center
Fri 08:11:21 PM 38.4706 -106.2011 247° West 499 574 43,000  Level Denver Center
Fri 08:12:23 PM 38.4147 -106.3625 246° West 497 572 43,000  Level Denver Center
Fri 08:13:25 PM 38.3586 -106.5244 246° West 499 574 43,000  Level Denver Center
Fri 08:14:27 PM 38.2967 -106.7014 246° West 497 572 43,000  Level Denver Center
Fri 08:15:29 PM 38.2461 -106.8469 246° West 498 573 43,000  Level Denver Center
Fri 08:16:31 PM 38.1775 -107.0417 246° West 500 575 43,000  Level Denver Center
Fri 08:17:33 PM 38.1253 -107.1894 246° West 496 571 43,000  Level Denver Center
Fri 08:18:35 PM 38.0639 -107.3631 246° West 501 577 43,000  Level Denver Center
Fri 08:19:38 PM 38.0003 -107.5381 245° Southwest 494 568 43,000  Level Denver Center
Fri 08:20:40 PM 37.9464 -107.6908 246° West 495 570 43,000  Level Denver Center
Fri 08:21:42 PM 37.8831 -107.8650 245° Southwest 490 564 43,000  Level Denver Center
Fri 08:22:43 PM 37.8367 -107.9911 245° Southwest 494 568 43,000  Level Denver Center
Fri 08:23:46 PM 37.7639 -108.1936 246° West 499 574 43,000  Level Denver Center
Fri 08:24:48 PM 37.7083 -108.3422 245° Southwest 494 568 43,000  Level Denver Center
Fri 08:25:50 PM 37.6450 -108.5181 246° West 493 567 43,000  Level Denver Center
Fri 08:26:52 PM 37.5892 -108.6681 245° Southwest 492 566 43,000  Level Denver Center
Fri 08:27:54 PM 37.5331 -108.8167 245° Southwest 493 567 43,000  Level Denver Center
Fri 08:28:56 PM 37.4692 -108.9850 244° Southwest 483 556 43,000  Level Denver Center
Fri 08:29:58 PM 37.4133 -109.1325 245° Southwest 489 563 43,000  Level Denver Center
Fri 08:31:00 PM 37.3475 -109.3058 245° Southwest 493 567 43,000  Level Denver Center
Fri 08:32:02 PM 37.2906 -109.4550 244° Southwest 494 568 43,000  Level Denver Center
Fri 08:33:04 PM 37.2250 -109.6289 245° Southwest 496 571 43,000  Level Denver Center
Fri 08:34:06 PM 37.1681 -109.7761 244° Southwest 494 568 43,000  Level Denver Center
Fri 08:35:08 PM 37.1025 -109.9422 244° Southwest 481 554 43,000  Level Denver Center
Fri 08:36:11 PM 37.0458 -110.0889 244° Southwest 487 560 43,000  Level Denver Center
Fri 08:37:12 PM 36.9817 -110.2522 244° Southwest 488 562 43,000  Level Denver Center
Fri 08:38:14 PM 36.9225 -110.4042 244° Southwest 486 559 43,000  Level Denver Center
Fri 08:39:16 PM 36.8614 -110.5586 244° Southwest 495 570 43,000  Level Denver Center
Fri 08:40:18 PM 36.8008 -110.7111 244° Southwest 491 565 43,000  Level Denver Center
Fri 08:41:20 PM 36.7267 -110.8944 243° Southwest 493 567 43,000  Level Denver Center
Fri 08:42:22 PM 36.6664 -111.0464 244° Southwest 492 566 43,000  Level Denver Center
Fri 08:43:24 PM 36.6050 -111.1983 243° Southwest 490 564 43,000  Level Denver Center
Fri 08:44:26 PM 36.5447 -111.3489 244° Southwest 488 562 43,000  Level Denver Center
Fri 08:45:27 PM 36.4828 -111.5000 243° Southwest 489 563 43,000  Level Denver Center
Fri 08:46:29 PM 36.4239 -111.6511 244° Southwest 487 560 43,000  Level Denver Center
Fri 08:47:21 PM 36.3633 -111.8019 244° Southwest 485 558 43,000  Level Los Angeles Center
Fri 08:48:23 PM 36.3053 -111.9525 244° Southwest 484 557 43,000  Level Los Angeles Center
Fri 08:49:25 PM 36.2464 -112.1025 244° Southwest 483 556 43,000  Level Los Angeles Center
Fri 08:50:27 PM 36.1897 -112.2425 243° Southwest 491 565 43,000  Level Los Angeles Center
Fri 08:51:29 PM 36.1258 -112.4056 244° Southwest 487 560 43,000  Level Los Angeles Center
Fri 08:52:31 PM 36.0650 -112.5581 244° Southwest 492 566 43,000  Level Los Angeles Center
Fri 08:53:34 PM 35.9794 -112.7303 238° Southwest 492 566 43,000  Level Los Angeles Center
Fri 08:54:36 PM 35.9153 -112.8525 237° Southwest 489 563 43,000  Level Los Angeles Center
Fri 08:55:38 PM 35.8428 -112.9906 237° Southwest 487 560 43,000  Level Los Angeles Center
Fri 08:56:40 PM 35.7572 -113.1583 238° Southwest 489 563 43,000  Level Los Angeles Center
Fri 08:57:42 PM 35.6881 -113.2969 238° Southwest 485 558 43,000  Level Los Angeles Center
Fri 08:58:44 PM 35.6256 -113.4386 242° Southwest 483 556 43,000  Level Los Angeles Center
Fri 08:59:46 PM 35.5683 -113.5842 244° Southwest 482 555 43,000  Level Los Angeles Center
Fri 09:00:48 PM 35.4989 -113.7597 244° Southwest 482 555 43,000  Level Los Angeles Center
Fri 09:01:50 PM 35.4422 -113.9044 244° Southwest 479 551 43,000  Level Los Angeles Center
Fri 09:02:52 PM 35.3847 -114.0475 244° Southwest 481 554 43,000  Level Los Angeles Center
Fri 09:03:55 PM 35.3261 -114.1961 244° Southwest 483 556 43,000  Level Los Angeles Center
Fri 09:04:57 PM 35.2553 -114.3733 244° Southwest 481 554 43,000  Level Los Angeles Center
Fri 09:05:59 PM 35.1947 -114.5222 244° Southwest 486 559 43,000  Level Los Angeles Center
Fri 09:07:01 PM 35.1336 -114.6733 244° Southwest 492 566 43,000  Level Los Angeles Center
Fri 09:08:03 PM 35.0731 -114.8228 244° Southwest 491 565 43,000  Level Los Angeles Center
Fri 09:09:05 PM 35.0136 -114.9706 244° Southwest 486 559 43,000 -435 Level Los Angeles Center
Fri 09:10:07 PM 34.9525 -115.1169 243° Southwest 484 557 42,100 -1,597 Descending Los Angeles Center
Fri 09:11:09 PM 34.8817 -115.2889 243° Southwest 472 543 39,700 -2,129 Descending Los Angeles Center
Fri 09:12:11 PM 34.8214 -115.4347 243° Southwest 479 551 37,700 -1,984 Descending Los Angeles Center
Fri 09:13:13 PM 34.7586 -115.5878 244° Southwest 487 560 35,600 -1,968 Descending Los Angeles Center
Fri 09:14:16 PM 34.6983 -115.7317 243° Southwest 478 550 33,600 -1,872 Descending Los Angeles Center
Fri 09:15:18 PM 34.6397 -115.8714 243° Southwest 469 540 31,700 -1,839 Descending Los Angeles Center
Fri 09:16:20 PM 34.5883 -115.9939 243° Southwest 420 483 29,800 -1,839 Descending Los Angeles Center
Fri 09:17:22 PM 34.5383 -116.1125 243° Southwest 402 463 27,900 -1,935 Descending Los Angeles Center
Fri 09:18:24 PM 34.4883 -116.2294 243° Southwest 393 452 25,800 -1,887 Descending Los Angeles Center
Fri 09:19:26 PM 34.4317 -116.3614 243° Southwest 371 427 24,000 -871 Descending Los Angeles Center
Fri 09:20:28 PM 34.3847 -116.4708 243° Southwest 366 421 24,000  Level Los Angeles Center
Fri 09:21:30 PM 34.3375 -116.5819 243° Southwest 369 425 24,000  Level Los Angeles Center
Fri 09:22:32 PM 34.2894 -116.6908 242° Southwest 367 422 24,000  Level Los Angeles Center
Fri 09:23:35 PM 34.2428 -116.7994 243° Southwest 365 420 24,000 -720 Level Los Angeles Center
Fri 09:24:37 PM 34.1947 -116.9094 242° Southwest 369 425 22,500 -1,790 Descending Los Angeles Center
Fri 09:25:39 PM 34.1400 -117.0347 242° Southwest 352 405 20,300 -2,106 Descending Los Angeles Center
Fri 09:26:11 PM 34.1167 -117.1000 247° West 354 407 19,200 -1,630 Descending Southern California TRACON
Fri 09:27:11 PM 34.0667 -117.2000 239° Southwest 336 387 17,800 -1,400 Descending Southern California TRACON
Fri 09:28:11 PM 34.0500 -117.3000 259° West 341 392 16,400 -1,550 Descending Southern California TRACON
Fri 09:29:11 PM 34.0333 -117.4167 260° West 326 375 14,700 -1,488 Descending Southern California TRACON
Fri 09:30:12 PM 34.0167 -117.5167 259° West 309 356 13,400 -1,250 Descending Southern California TRACON
Fri 09:31:11 PM 34.0167 -117.6167 270° West 420 483 12,200 -1,400 Descending Southern California TRACON
Fri 09:32:12 PM 34.0000 -117.7333 260° West 301 346 10,600 -1,587 Descending Southern California TRACON
Fri 09:33:12 PM 34.0000 -117.8333 270° West 288 331 9,000 -1,600 Descending Southern California TRACON
Fri 09:34:12 PM 33.9833 -117.9333 259° West 284 327 7,400 -1,500 Descending Southern California TRACON
Fri 09:35:12 PM 33.9667 -118.0000 253° West 234 269 6,000 -1,250 Descending Southern California TRACON
Fri 09:36:12 PM 33.9667 -118.0833 270° West 229 264 4,900 -1,156 Descending Southern California TRACON
Fri 09:37:01 PM 33.9622 -118.1392 265° West 229 264 3,900 -1,081 Descending Los Angeles Center
Fri 09:38:03 PM 33.9547 -118.2069 262° West 216 249 2,900 -919 Descending Los Angeles Center
Fri 09:39:05 PM 33.9497 -118.2622 264° West 184 212 2,000 -823 Descending Los Angeles Center
Fri 09:40:07 PM 33.9436 -118.3192 263° West 176 203 1,200 -774 Descending Los Angeles Center
Fri 09:41:09 PM 33.9400 -118.3714 265° West 143 165 400 -484 Descending Los Angeles Center
Fri 09:42:11 PM 33.9358 -118.4111 263° West 139 160 200 -194 Descending Los Angeles Center
Fri 09:44:00 PM 33.9333 -118.4000 North  Level FlightAware Approximate

Login

Don't have an account? Register now (free) for customized features, flight alerts, and more!